createdAt,value
2022-12-15T00:02:17.700Z,76.89
2022-12-15T00:05:00.638Z,76.73
2022-12-15T00:07:43.893Z,76.40
2022-12-15T00:10:41.764Z,77.21
2022-12-15T00:13:45.601Z,77.27
2022-12-15T00:16:28.934Z,76.96
2022-12-15T00:19:12.494Z,77.23
2022-12-15T00:21:55.368Z,77.28
2022-12-15T00:24:38.853Z,76.20
2022-12-15T00:27:24.627Z,76.34
2022-12-15T00:30:08.058Z,76.36
2022-12-15T00:32:51.193Z,76.56
2022-12-15T00:35:34.720Z,77.63
2022-12-15T00:38:23.187Z,77.07
2022-12-15T00:40:59.249Z,77.55
2022-12-15T00:43:32.951Z,76.45
2022-12-15T00:46:18.392Z,76.42
2022-12-15T00:48:49.682Z,76.50
2022-12-15T00:51:18.638Z,79.63
2022-12-15T00:54:02.369Z,80.27
2022-12-15T00:56:46.572Z,80.35
2022-12-15T00:59:32.764Z,81.10
2022-12-15T01:02:16.874Z,82.65
2022-12-15T01:05:00.186Z,81.75
2022-12-15T01:07:43.969Z,80.19
2022-12-15T01:10:33.159Z,81.95
2022-12-15T01:13:19.830Z,81.49
2022-12-15T01:16:05.029Z,79.40
2022-12-15T01:18:49.597Z,84.05
2022-12-15T01:21:24.094Z,84.04
2022-12-15T01:23:57.995Z,85.54
2022-12-15T01:26:28.276Z,85.96
2022-12-15T01:29:03.279Z,86.48
2022-12-15T01:31:40.996Z,87.50
2022-12-15T01:34:11.632Z,88.23
2022-12-15T01:36:41.695Z,87.37
2022-12-15T01:39:16.940Z,85.87
2022-12-15T01:41:44.545Z,85.76
2022-12-15T01:44:19.892Z,86.30
2022-12-15T01:46:56.898Z,87.48
2022-12-15T01:49:31.105Z,87.10
2022-12-15T01:52:03.683Z,86.74
2022-12-15T01:54:38.107Z,86.80
2022-12-15T01:57:16.916Z,86.27
2022-12-15T01:59:51.407Z,85.71
2022-12-15T02:02:27.679Z,85.99
2022-12-15T02:05:01.277Z,86.10
2022-12-15T02:07:31.674Z,85.84
2022-12-15T02:10:06.136Z,87.07
2022-12-15T02:12:43.324Z,87.20
2022-12-15T02:15:22.236Z,86.41
2022-12-15T02:18:04.830Z,85.97
2022-12-15T02:20:47.749Z,85.64
2022-12-15T02:23:48.473Z,86.35
2022-12-15T02:27:12.643Z,87.34
2022-12-15T02:30:27.693Z,86.62
2022-12-15T02:33:11.921Z,85.82
2022-12-15T02:35:56.142Z,85.88
2022-12-15T02:38:39.877Z,86.34
2022-12-15T02:41:38.654Z,85.71
2022-12-15T02:44:15.047Z,85.88
2022-12-15T02:47:02.798Z,85.51
2022-12-15T02:49:49.825Z,85.68
2022-12-15T02:52:32.858Z,84.87
2022-12-15T02:55:18.020Z,85.45
2022-12-15T02:57:56.958Z,84.59
2022-12-15T03:00:27.466Z,84.52
2022-12-15T03:02:58.765Z,85.12
2022-12-15T03:05:34.942Z,84.75
2022-12-15T03:08:04.851Z,85.43
2022-12-15T03:10:35.265Z,85.90
2022-12-15T03:13:05.773Z,84.01
2022-12-15T03:15:36.066Z,82.96
2022-12-15T03:18:06.149Z,82.71
2022-12-15T03:20:39.027Z,82.52
2022-12-15T03:23:08.949Z,82.72
2022-12-15T03:25:39.234Z,83.63
2022-12-15T03:28:09.206Z,84.83
2022-12-15T03:30:39.474Z,85.41
2022-12-15T03:33:09.422Z,85.70
2022-12-15T03:35:44.922Z,86.48
2022-12-15T03:38:14.942Z,85.53
2022-12-15T03:40:45.472Z,85.80
2022-12-15T03:43:15.467Z,85.87
2022-12-15T03:45:46.252Z,85.72
2022-12-15T03:48:16.213Z,85.75
2022-12-15T03:50:51.624Z,85.94
2022-12-15T03:53:21.604Z,86.49
2022-12-15T03:55:52.080Z,85.72
2022-12-15T03:58:22.015Z,85.81
2022-12-15T04:00:52.235Z,84.95
2022-12-15T04:03:22.382Z,84.64
2022-12-15T04:05:55.290Z,83.88
2022-12-15T04:08:26.758Z,83.49
2022-12-15T04:10:57.346Z,83.17
2022-12-15T04:13:27.759Z,82.76
2022-12-15T04:15:58.311Z,82.71
2022-12-15T04:18:28.554Z,83.09
2022-12-15T04:20:59.098Z,82.96
2022-12-15T04:23:29.829Z,82.70
2022-12-15T04:26:13.088Z,82.87
2022-12-15T04:28:55.769Z,83.17
2022-12-15T04:31:42.374Z,82.69
2022-12-15T04:34:28.438Z,83.03
2022-12-15T04:37:14.415Z,82.86
2022-12-15T04:40:00.113Z,83.75
2022-12-15T04:42:44.993Z,83.67
2022-12-15T04:45:28.599Z,83.99
2022-12-15T04:48:11.576Z,86.10
2022-12-15T04:50:54.214Z,89.99
2022-12-15T04:53:39.563Z,92.91
2022-12-15T04:56:25.802Z,94.50
2022-12-15T04:59:08.468Z,95.71
2022-12-15T05:01:50.906Z,95.98
2022-12-15T05:04:33.773Z,96.24
2022-12-15T05:07:16.219Z,95.47
2022-12-15T05:10:03.526Z,95.25
2022-12-15T05:12:46.271Z,95.13
2022-12-15T05:15:29.250Z,95.08
2022-12-15T05:18:11.714Z,95.28
2022-12-15T05:20:54.722Z,97.17
2022-12-15T05:23:37.124Z,99.25
2022-12-15T05:26:22.476Z,99.94
2022-12-15T05:29:04.834Z,100.00
2022-12-15T05:31:52.223Z,98.86
2022-12-15T05:34:23.990Z,98.40
2022-12-15T05:36:54.466Z,99.90
2022-12-15T05:39:24.802Z,100.00
2022-12-15T05:41:58.888Z,100.00
2022-12-15T05:44:29.333Z,100.00
2022-12-15T05:46:59.583Z,100.00
2022-12-15T05:49:29.464Z,99.90
2022-12-15T05:51:59.886Z,98.80
2022-12-15T05:54:29.881Z,98.67
2022-12-15T05:57:02.707Z,98.85
2022-12-15T05:59:32.729Z,98.78
2022-12-15T06:02:03.069Z,98.24
2022-12-15T06:04:33.471Z,97.73
2022-12-15T06:07:03.737Z,97.00
2022-12-15T06:09:33.909Z,96.20
2022-12-15T06:12:07.207Z,96.20
2022-12-15T06:14:37.186Z,95.68
2022-12-15T06:17:07.354Z,95.00
2022-12-15T06:19:37.455Z,94.28
2022-12-15T06:22:08.181Z,93.43
2022-12-15T06:24:38.115Z,93.57
2022-12-15T06:27:11.348Z,93.68
2022-12-15T06:29:41.309Z,95.05
2022-12-15T06:32:11.569Z,94.87
2022-12-15T06:34:41.619Z,94.05
2022-12-15T06:37:12.351Z,93.43
2022-12-15T06:39:42.677Z,94.09
2022-12-15T06:42:15.529Z,93.32
2022-12-15T06:44:45.474Z,92.38
2022-12-15T06:47:19.581Z,91.15
2022-12-15T06:49:49.511Z,90.94
2022-12-15T06:52:20.057Z,90.58
2022-12-15T06:54:50.318Z,89.84
2022-12-15T06:57:23.234Z,89.29
2022-12-15T06:59:53.173Z,88.47
2022-12-15T07:02:28.908Z,87.44
2022-12-15T07:05:01.084Z,86.72
2022-12-15T07:07:31.604Z,86.05
2022-12-15T07:10:01.699Z,86.45
2022-12-15T07:12:35.969Z,85.83
2022-12-15T07:15:08.094Z,85.24
2022-12-15T07:17:38.650Z,85.05
2022-12-15T07:20:10.123Z,85.70
2022-12-15T07:22:42.953Z,85.12
2022-12-15T07:25:15.672Z,84.99
2022-12-15T07:27:48.845Z,85.92
2022-12-15T07:30:20.370Z,85.99
2022-12-15T07:32:51.393Z,87.40
2022-12-15T07:35:21.907Z,85.77
2022-12-15T07:37:52.381Z,85.57
2022-12-15T07:40:22.352Z,85.07
2022-12-15T07:42:55.203Z,85.10
2022-12-15T07:45:25.267Z,84.48
2022-12-15T07:47:55.607Z,84.13
2022-12-15T07:50:25.635Z,84.19
2022-12-15T07:52:56.121Z,84.50
2022-12-15T07:55:50.096Z,84.43
2022-12-15T07:58:19.191Z,84.20
2022-12-15T08:00:49.254Z,83.98
2022-12-15T08:03:19.667Z,84.00
2022-12-15T08:05:49.661Z,85.02
2022-12-15T08:08:20.066Z,83.90
2022-12-15T08:10:50.274Z,84.34
2022-12-15T08:13:52.886Z,83.47
2022-12-15T08:16:13.494Z,83.20
2022-12-15T08:18:43.814Z,82.77
2022-12-15T08:21:14.627Z,82.15
2022-12-15T08:23:44.977Z,81.62
2022-12-15T08:26:17.573Z,82.42
2022-12-15T08:28:50.455Z,81.74
2022-12-15T08:31:22.970Z,81.56
2022-12-15T08:33:53.967Z,81.02
2022-12-15T08:36:24.304Z,81.00
2022-12-15T08:38:54.629Z,81.46
2022-12-15T08:41:27.089Z,80.85
2022-12-15T08:44:01.457Z,80.91
2022-12-15T08:46:33.821Z,80.34
2022-12-15T08:49:05.326Z,80.59
2022-12-15T08:51:35.989Z,80.38
2022-12-15T08:54:06.459Z,79.99
2022-12-15T08:56:38.252Z,79.56
2022-12-15T08:59:12.404Z,80.69
2022-12-15T09:01:49.021Z,80.24
2022-12-15T09:04:20.203Z,80.43
2022-12-15T09:06:51.185Z,81.07
2022-12-15T09:09:22.294Z,81.88
2022-12-15T09:11:52.991Z,81.22
2022-12-15T09:14:29.500Z,81.10
2022-12-15T09:17:00.318Z,81.40
2022-12-15T09:19:31.179Z,80.16
2022-12-15T09:22:01.486Z,79.73
2022-12-15T09:24:35.033Z,79.65
2022-12-15T09:27:06.372Z,78.54
2022-12-15T09:29:39.520Z,79.76
2022-12-15T09:32:13.995Z,79.54
2022-12-15T09:34:45.038Z,78.18
2022-12-15T09:37:17.230Z,77.37
2022-12-15T09:39:48.571Z,79.25
2022-12-15T09:42:26.002Z,79.02
2022-12-15T09:45:04.391Z,77.51
2022-12-15T09:47:43.654Z,77.16
2022-12-15T09:50:17.016Z,77.29
2022-12-15T09:52:51.741Z,76.08
2022-12-15T09:55:26.101Z,78.27
2022-12-15T09:57:57.876Z,79.96
2022-12-15T10:00:37.185Z,76.35
2022-12-15T10:03:31.476Z,79.11
2022-12-15T10:06:18.299Z,76.82
2022-12-15T10:08:55.751Z,73.84
2022-12-15T10:11:38.771Z,71.14
2022-12-15T10:14:19.408Z,71.63
2022-12-15T10:17:02.449Z,71.53
2022-12-15T10:19:40.844Z,69.03
2022-12-15T10:22:15.995Z,69.61
2022-12-15T10:27:57.474Z,73.39
2022-12-15T10:30:27.832Z,71.15
2022-12-15T10:33:05.128Z,72.55
2022-12-15T10:35:39.661Z,72.40
2022-12-15T10:38:24.347Z,77.36
2022-12-15T10:40:57.063Z,77.31
2022-12-15T10:43:30.916Z,76.79
2022-12-15T10:46:08.363Z,74.75
2022-12-15T10:48:41.625Z,75.61
2022-12-15T10:51:20.934Z,76.59
2022-12-15T10:53:52.435Z,72.70
2022-12-15T10:56:32.428Z,70.88
2022-12-15T10:59:06.267Z,74.25
2022-12-15T11:01:37.562Z,72.40
2022-12-15T11:04:28.430Z,70.69
2022-12-15T11:07:02.882Z,74.15
2022-12-15T11:09:36.917Z,72.53
2022-12-15T11:12:38.023Z,76.29
2022-12-15T11:15:45.667Z,75.79
2022-12-15T11:18:38.044Z,75.98
2022-12-15T11:21:16.702Z,74.20
2022-12-15T11:23:59.445Z,73.08
2022-12-15T11:26:42.292Z,74.79
2022-12-15T11:29:52.114Z,74.24
2022-12-15T11:32:25.727Z,69.23
2022-12-15T11:34:56.218Z,69.93
2022-12-15T11:37:43.708Z,72.90
2022-12-15T11:40:37.134Z,73.44
2022-12-15T11:43:29.925Z,75.00
2022-12-15T11:46:26.019Z,76.68
2022-12-15T11:49:31.173Z,75.78
2022-12-15T11:52:06.071Z,75.86
2022-12-15T11:54:43.169Z,75.38
2022-12-15T11:57:32.129Z,76.46
2022-12-15T12:00:08.818Z,76.21
2022-12-15T12:03:00.554Z,74.82
2022-12-15T12:05:50.769Z,75.30
2022-12-15T12:08:38.365Z,75.22
2022-12-15T12:11:16.358Z,74.13
2022-12-15T12:13:58.967Z,69.88
2022-12-15T12:16:39.967Z,67.65
2022-12-15T12:19:14.396Z,64.10
2022-12-15T12:21:50.762Z,66.58
2022-12-15T12:24:27.825Z,68.19
2022-12-15T12:27:04.500Z,64.54
2022-12-15T12:29:37.293Z,65.82
2022-12-15T12:32:15.526Z,70.68
2022-12-15T12:35:32.043Z,68.89
2022-12-15T12:37:59.442Z,74.72
2022-12-15T12:40:38.399Z,71.97
2022-12-15T12:43:14.491Z,75.59
2022-12-15T12:45:52.471Z,74.13
2022-12-15T12:48:30.654Z,72.01
2022-12-15T12:51:15.617Z,72.87
2022-12-15T12:53:46.186Z,73.24
2022-12-15T12:56:34.515Z,75.33
2022-12-15T12:59:29.123Z,76.51
2022-12-15T13:02:00.721Z,70.25
2022-12-15T13:04:44.400Z,73.30
2022-12-15T13:07:31.797Z,74.07
2022-12-15T13:10:19.807Z,71.69
2022-12-15T13:12:52.946Z,68.29
2022-12-15T13:15:43.029Z,70.41
2022-12-15T13:18:18.569Z,69.79
2022-12-15T13:20:51.212Z,68.83
2022-12-15T13:23:42.863Z,66.02
2022-12-15T13:26:17.286Z,68.12
2022-12-15T13:28:51.534Z,66.19
2022-12-15T13:31:49.721Z,65.04
2022-12-15T13:34:30.060Z,65.97
2022-12-15T13:37:02.465Z,63.97
2022-12-15T13:39:56.331Z,64.55
2022-12-15T13:45:44.794Z,65.12
2022-12-15T13:48:42.696Z,66.38
2022-12-15T13:51:24.626Z,65.60
2022-12-15T13:54:00.278Z,68.55
2022-12-15T13:56:48.988Z,69.63
2022-12-15T13:59:45.302Z,68.23
2022-12-15T14:02:29.531Z,70.14
2022-12-15T14:05:17.526Z,70.47
2022-12-15T14:07:54.574Z,66.39
2022-12-15T14:10:27.662Z,65.46
2022-12-15T14:13:00.200Z,64.48
2022-12-15T14:15:33.349Z,64.99
2022-12-15T14:18:05.223Z,64.72
2022-12-15T14:20:43.831Z,65.34
2022-12-15T14:23:22.020Z,64.67
2022-12-15T14:25:56.699Z,64.00
2022-12-15T14:28:32.764Z,64.69
2022-12-15T14:31:07.383Z,63.87
2022-12-15T14:33:40.735Z,65.10
2022-12-15T14:36:17.369Z,64.86
2022-12-15T14:38:51.630Z,65.37
2022-12-15T14:41:24.761Z,65.73
2022-12-15T14:44:36.560Z,66.66
2022-12-15T14:46:51.065Z,67.93
2022-12-15T14:49:23.974Z,69.48
2022-12-15T14:52:02.200Z,69.51
2022-12-15T14:54:38.657Z,69.81
2022-12-15T14:57:17.304Z,68.85
2022-12-15T14:59:49.112Z,71.58
2022-12-15T15:02:26.832Z,70.52
2022-12-15T15:03:05.640Z,64.31
2022-12-15T15:04:59.811Z,69.88
2022-12-15T15:07:33.840Z,70.60
2022-12-15T15:10:06.056Z,71.18
2022-12-15T15:12:47.192Z,71.38
2022-12-15T15:15:20.729Z,73.31
2022-12-15T15:17:53.905Z,74.38
2022-12-15T15:20:27.522Z,74.58
2022-12-15T15:23:20.813Z,74.66
2022-12-15T15:25:53.922Z,75.93
2022-12-15T15:28:27.331Z,76.65
2022-12-15T15:31:00.535Z,77.41
2022-12-15T15:33:31.373Z,78.16
2022-12-15T15:36:04.304Z,80.16
2022-12-15T15:38:40.914Z,79.49
2022-12-15T15:41:19.005Z,77.81
2022-12-15T15:43:50.557Z,76.74
2022-12-15T15:46:25.638Z,77.43
2022-12-15T15:48:58.196Z,79.06
2022-12-15T15:51:29.966Z,78.34
2022-12-15T15:54:08.472Z,76.95
2022-12-15T15:56:39.144Z,77.14
2022-12-15T15:59:14.953Z,77.17
2022-12-15T16:01:46.530Z,76.64
2022-12-15T16:04:17.299Z,77.49
2022-12-15T16:06:48.015Z,77.88
2022-12-15T16:09:21.084Z,78.46
2022-12-15T16:11:51.148Z,79.39
2022-12-15T16:14:21.627Z,80.37
2022-12-15T16:16:53.886Z,82.68
2022-12-15T16:19:27.662Z,84.42
2022-12-15T16:21:58.175Z,82.65
2022-12-15T16:24:31.268Z,81.58
2022-12-15T16:27:02.627Z,80.12
2022-12-15T16:29:32.922Z,80.65
2022-12-15T16:32:02.938Z,83.19
2022-12-15T16:34:33.146Z,81.42
2022-12-15T16:37:03.085Z,80.57
2022-12-15T16:39:37.927Z,81.99
2022-12-15T16:42:12.230Z,81.11
2022-12-15T16:44:42.446Z,80.59
2022-12-15T16:47:12.609Z,80.46
2022-12-15T16:49:42.878Z,80.07
2022-12-15T16:52:21.774Z,81.97
2022-12-15T16:54:56.813Z,81.82
2022-12-15T16:57:26.838Z,81.66
2022-12-15T16:59:57.124Z,82.57
2022-12-15T17:02:29.304Z,83.26
2022-12-15T17:04:59.955Z,83.29
2022-12-15T17:07:30.632Z,83.77
2022-12-15T17:10:03.605Z,83.59
2022-12-15T17:12:34.116Z,84.70
2022-12-15T17:15:05.110Z,85.90
2022-12-15T17:17:35.549Z,86.13
2022-12-15T17:23:00.484Z,85.79
2022-12-15T17:26:19.550Z,85.30
2022-12-15T17:28:33.038Z,84.96
2022-12-15T17:31:03.813Z,85.87
2022-12-15T17:33:36.959Z,86.63
2022-12-15T17:36:17.497Z,85.64
2022-12-15T17:38:47.834Z,85.47
2022-12-15T17:41:42.822Z,86.01
2022-12-15T17:44:38.754Z,86.17
2022-12-15T17:47:10.971Z,87.07
2022-12-15T17:49:41.035Z,87.50
2022-12-15T17:52:22.696Z,87.76
2022-12-15T17:54:54.047Z,88.54
2022-12-15T17:57:26.931Z,87.90
2022-12-15T17:59:56.994Z,88.55
2022-12-15T18:02:27.569Z,87.87
2022-12-15T18:04:57.850Z,87.18
2022-12-15T18:07:28.513Z,87.71
2022-12-15T18:09:58.480Z,87.69
2022-12-15T18:12:31.324Z,87.91
2022-12-15T18:15:01.374Z,88.11
2022-12-15T18:17:35.058Z,87.38
2022-12-15T18:20:07.371Z,88.15
2022-12-15T18:22:37.848Z,88.18
2022-12-15T18:25:17.014Z,87.93
2022-12-15T18:27:50.251Z,88.64
2022-12-15T18:30:23.482Z,88.36
2022-12-15T18:32:57.845Z,88.39
2022-12-15T18:35:33.538Z,88.60
2022-12-15T18:38:03.861Z,88.91
2022-12-15T18:40:33.886Z,90.04
2022-12-15T18:43:14.237Z,90.25
2022-12-15T18:45:44.554Z,89.73
2022-12-15T18:48:20.847Z,90.50
2022-12-15T18:50:52.817Z,90.97
2022-12-15T18:53:29.138Z,90.45
2022-12-15T18:56:00.408Z,90.18
2022-12-15T18:58:35.848Z,89.83
2022-12-15T19:01:08.008Z,89.53
2022-12-15T19:03:41.040Z,89.80
2022-12-15T19:06:25.906Z,89.90
2022-12-15T19:08:56.547Z,90.08
2022-12-15T19:11:31.026Z,89.81
2022-12-15T19:14:26.096Z,89.81
2022-12-15T19:17:08.472Z,89.92
2022-12-15T19:19:51.123Z,89.71
2022-12-15T19:22:31.196Z,89.79
2022-12-15T19:25:02.154Z,90.14
2022-12-15T19:27:32.151Z,89.97
2022-12-15T19:30:05.175Z,89.78
2022-12-15T19:32:35.192Z,89.79
2022-12-15T19:35:05.492Z,90.63
2022-12-15T19:37:39.132Z,90.65
2022-12-15T19:40:13.357Z,90.23
2022-12-15T19:42:44.427Z,91.58
2022-12-15T19:45:22.051Z,90.57
2022-12-15T19:47:52.512Z,89.83
2022-12-15T19:50:25.648Z,90.10
2022-12-15T19:53:01.310Z,90.64
2022-12-15T19:55:35.172Z,90.83
2022-12-15T19:58:26.914Z,91.37
2022-12-15T20:01:03.449Z,91.15
2022-12-15T20:03:37.124Z,91.24
2022-12-15T20:06:17.184Z,91.42
2022-12-15T20:08:50.285Z,91.15
2022-12-15T20:11:23.533Z,91.20
2022-12-15T20:13:55.263Z,91.03
2022-12-15T20:16:28.934Z,90.61
2022-12-15T20:18:59.725Z,90.88
2022-12-15T20:21:34.054Z,90.86
2022-12-15T20:24:09.557Z,90.67
2022-12-15T20:26:41.982Z,91.01
2022-12-15T20:29:24.933Z,91.07
2022-12-15T20:31:59.332Z,91.24
2022-12-15T20:34:29.610Z,91.59
2022-12-15T20:37:02.133Z,90.99
2022-12-15T20:39:33.464Z,91.31
2022-12-15T20:42:04.329Z,91.80
2022-12-15T20:44:36.941Z,91.69
2022-12-15T20:47:22.255Z,91.20
2022-12-15T20:49:53.116Z,90.22
2022-12-15T20:52:25.557Z,91.02
2022-12-15T20:54:56.943Z,91.26
2022-12-15T20:57:27.398Z,91.37
2022-12-15T21:00:08.455Z,90.98
2022-12-15T21:02:52.100Z,91.26
2022-12-15T21:05:27.070Z,91.08
2022-12-15T21:07:59.146Z,90.57
2022-12-15T21:10:29.926Z,90.40
2022-12-15T21:13:00.352Z,90.35
2022-12-15T21:15:30.488Z,89.73
2022-12-15T21:18:46.642Z,90.47
2022-12-15T21:20:55.872Z,89.98
2022-12-15T21:23:33.265Z,89.45
2022-12-15T21:26:16.469Z,89.35
2022-12-15T21:28:53.890Z,89.50
2022-12-15T21:31:37.845Z,90.60
2022-12-15T21:34:25.597Z,88.79
2022-12-15T21:36:56.497Z,87.76
2022-12-15T21:39:31.014Z,87.16
2022-12-15T21:42:03.277Z,86.60
2022-12-15T21:44:33.698Z,85.57
2022-12-15T21:47:03.731Z,86.46
2022-12-15T21:49:37.143Z,85.65
2022-12-15T21:52:19.071Z,84.66
2022-12-15T21:54:50.881Z,83.83
2022-12-15T21:58:04.539Z,83.24
2022-12-15T22:01:16.558Z,84.46
2022-12-15T22:03:57.598Z,83.93
2022-12-15T22:06:36.228Z,83.22
2022-12-15T22:09:09.514Z,82.93
2022-12-15T22:11:51.242Z,82.49
2022-12-15T22:14:35.545Z,82.04
2022-12-15T22:17:18.726Z,81.67
2022-12-15T22:19:51.349Z,82.45
2022-12-15T22:22:31.625Z,83.81
2022-12-15T22:25:17.758Z,82.05
2022-12-15T22:27:55.132Z,81.23
2022-12-15T22:30:27.996Z,80.83
2022-12-15T22:33:01.330Z,81.37
2022-12-15T22:35:38.559Z,81.36
2022-12-15T22:38:14.066Z,81.00
2022-12-15T22:40:52.980Z,82.68
2022-12-15T22:43:38.994Z,83.20
2022-12-15T22:46:14.259Z,82.76
2022-12-15T22:48:48.465Z,82.44
2022-12-15T22:51:19.944Z,81.47
2022-12-15T22:53:52.904Z,80.39
2022-12-15T22:56:30.620Z,80.96
2022-12-15T22:59:05.487Z,82.06
2022-12-15T23:01:35.642Z,80.92
2022-12-15T23:04:06.819Z,80.04
2022-12-15T23:06:36.935Z,79.95
2022-12-15T23:09:10.064Z,79.93
2022-12-15T23:11:37.379Z,82.13
2022-12-15T23:14:13.833Z,83.31
2022-12-15T23:16:42.323Z,83.21
2022-12-15T23:19:23.831Z,81.86
2022-12-15T23:21:54.818Z,81.36
2022-12-15T23:24:27.616Z,82.68
2022-12-15T23:26:57.533Z,82.58
2022-12-15T23:29:27.788Z,82.00
2022-12-15T23:31:58.318Z,81.44
2022-12-15T23:34:28.569Z,81.05
2022-12-15T23:36:58.501Z,80.73
2022-12-15T23:39:31.560Z,80.48
2022-12-15T23:42:01.700Z,80.02
2022-12-15T23:44:31.982Z,80.09
2022-12-15T23:47:02.021Z,79.81
2022-12-15T23:49:32.377Z,79.36
2022-12-15T23:52:02.342Z,79.25
2022-12-15T23:54:35.186Z,79.10
2022-12-15T23:57:06.739Z,79.47
2022-12-15T23:59:37.109Z,79.87
